createdAt,value
2023-01-15T00:02:42.867Z,2.10
2023-01-15T00:05:46.274Z,2.10
2023-01-15T00:08:51.043Z,2.10
2023-01-15T00:11:55.126Z,2.10
2023-01-15T00:14:59.963Z,2.10
2023-01-15T00:18:03.632Z,2.10
2023-01-15T00:21:08.865Z,2.10
2023-01-15T00:24:29.883Z,2.20
2023-01-15T00:27:44.237Z,2.20
2023-01-15T00:30:49.170Z,2.20
2023-01-15T00:33:52.557Z,2.10
2023-01-15T00:36:56.212Z,2.10
2023-01-15T00:39:59.547Z,2.10
2023-01-15T00:43:02.929Z,2.10
2023-01-15T00:46:09.536Z,2.10
2023-01-15T00:49:13.798Z,2.20
2023-01-15T00:52:17.587Z,2.10
2023-01-15T00:55:21.402Z,2.20
2023-01-15T00:58:24.900Z,2.10
2023-01-15T01:01:29.942Z,2.10
2023-01-15T01:04:33.490Z,2.10
2023-01-15T01:07:36.914Z,2.10
2023-01-15T01:10:40.281Z,2.20
2023-01-15T01:13:44.326Z,2.20
2023-01-15T01:16:49.091Z,2.20
2023-01-15T01:19:52.380Z,2.10
2023-01-15T01:22:55.929Z,2.10
2023-01-15T01:25:59.420Z,2.10
2023-01-15T01:29:02.862Z,2.00
2023-01-15T01:32:07.740Z,2.10
2023-01-15T01:35:11.780Z,2.00
2023-01-15T01:38:15.084Z,2.00
2023-01-15T01:41:19.079Z,2.00
2023-01-15T01:45:00.876Z,2.00
2023-01-15T01:48:08.352Z,1.90
2023-01-15T01:51:12.324Z,2.00
2023-01-15T01:54:21.004Z,2.00
2023-01-15T01:57:25.348Z,2.20
2023-01-15T02:00:29.731Z,2.00
2023-01-15T02:03:38.271Z,2.00
2023-01-15T02:06:43.741Z,2.00
2023-01-15T02:09:47.074Z,2.00
2023-01-15T02:12:57.840Z,2.10
2023-01-15T02:16:11.156Z,2.10
2023-01-15T02:19:29.303Z,2.10
2023-01-15T02:22:45.145Z,2.10
2023-01-15T02:26:09.434Z,2.10
2023-01-15T02:29:23.845Z,2.10
2023-01-15T02:32:36.364Z,2.10
2023-01-15T02:35:45.179Z,2.10
2023-01-15T02:38:52.338Z,2.10
2023-01-15T02:41:58.289Z,2.10
2023-01-15T02:45:10.288Z,2.30
2023-01-15T02:48:16.473Z,2.20
2023-01-15T02:51:24.023Z,2.20
2023-01-15T02:54:33.068Z,2.20
2023-01-15T02:57:40.112Z,2.50
2023-01-15T03:04:18.609Z,1.60
2023-01-15T03:07:26.452Z,2.30
2023-01-15T03:10:39.309Z,2.30
2023-01-15T03:13:48.686Z,2.40
2023-01-15T03:16:56.475Z,2.30
2023-01-15T03:20:08.021Z,2.30
2023-01-15T03:23:15.329Z,2.50
2023-01-15T03:26:18.650Z,2.60
2023-01-15T03:29:23.505Z,2.50
2023-01-15T03:32:31.282Z,2.40
2023-01-15T03:35:50.090Z,2.50
2023-01-15T03:39:07.167Z,2.50
2023-01-15T03:42:44.947Z,2.50
2023-01-15T03:45:54.425Z,2.80
2023-01-15T03:49:02.995Z,2.50
2023-01-15T03:52:17.624Z,2.40
2023-01-15T03:55:25.769Z,2.50
2023-01-15T03:58:42.613Z,2.50
2023-01-15T04:01:51.547Z,2.50
2023-01-15T04:04:59.911Z,2.50
2023-01-15T04:08:07.411Z,2.50
2023-01-15T04:11:11.982Z,2.50
2023-01-15T04:14:23.200Z,2.60
2023-01-15T04:17:30.354Z,2.70
2023-01-15T04:20:34.607Z,2.70
2023-01-15T04:23:39.313Z,2.50
2023-01-15T04:26:42.546Z,2.40
2023-01-15T04:29:45.838Z,2.70
2023-01-15T04:32:50.212Z,2.50
2023-01-15T04:35:53.462Z,2.40
2023-01-15T04:38:59.941Z,2.40
2023-01-15T04:42:32.141Z,2.50
2023-01-15T04:45:35.358Z,2.40
2023-01-15T04:48:39.678Z,2.40
2023-01-15T04:51:43.109Z,2.40
2023-01-15T04:54:47.939Z,2.40
2023-01-15T04:57:51.190Z,2.50
2023-01-15T05:00:54.443Z,2.50
2023-01-15T05:03:58.332Z,2.50
2023-01-15T05:07:03.256Z,2.50
2023-01-15T05:10:08.563Z,2.50
2023-01-15T05:13:11.856Z,2.50
2023-01-15T05:16:17.358Z,2.50
2023-01-15T05:19:20.654Z,2.60
2023-01-15T05:22:23.858Z,2.60
2023-01-15T05:25:28.547Z,2.60
2023-01-15T05:28:31.816Z,2.60
2023-01-15T05:31:35.006Z,2.70
2023-01-15T05:34:39.561Z,2.90
2023-01-15T05:37:42.779Z,2.90
2023-01-15T05:40:47.453Z,2.90
2023-01-15T05:43:50.710Z,2.70
2023-01-15T05:46:55.862Z,2.70
2023-01-15T05:49:59.182Z,2.80
2023-01-15T05:53:02.474Z,2.80
2023-01-15T05:56:07.920Z,2.90
2023-01-15T05:59:11.303Z,2.80
2023-01-15T06:02:14.573Z,2.90
2023-01-15T06:05:20.307Z,2.90
2023-01-15T06:08:24.215Z,2.90
2023-01-15T06:11:30.664Z,2.90
2023-01-15T06:14:33.871Z,2.90
2023-01-15T06:17:37.170Z,2.90
2023-01-15T06:20:41.086Z,2.90
2023-01-15T06:23:45.509Z,3.00
2023-01-15T06:26:50.189Z,3.00
2023-01-15T06:29:53.882Z,3.10
2023-01-15T06:32:57.132Z,3.10
2023-01-15T06:36:03.397Z,3.10
2023-01-15T06:39:06.607Z,3.10
2023-01-15T06:42:30.096Z,3.20
2023-01-15T06:45:55.814Z,3.20
2023-01-15T06:48:59.241Z,3.10
2023-01-15T06:52:03.166Z,3.20
2023-01-15T06:55:07.155Z,3.50
2023-01-15T06:58:11.807Z,3.40
2023-01-15T07:01:16.646Z,3.40
2023-01-15T07:04:20.205Z,3.50
2023-01-15T07:07:23.849Z,3.50
2023-01-15T07:10:27.216Z,3.50
2023-01-15T07:13:32.056Z,3.50
2023-01-15T07:16:36.053Z,3.60
2023-01-15T07:19:40.682Z,3.60
2023-01-15T07:22:45.653Z,3.60
2023-01-15T07:25:48.930Z,3.60
2023-01-15T07:28:53.635Z,3.70
2023-01-15T07:31:57.624Z,3.80
2023-01-15T07:35:00.914Z,3.80
2023-01-15T07:38:05.822Z,3.80
2023-01-15T07:41:27.960Z,3.80
2023-01-15T07:44:49.999Z,3.90
2023-01-15T07:48:12.226Z,3.90
2023-01-15T07:51:15.936Z,4.00
2023-01-15T07:54:19.981Z,4.00
2023-01-15T07:57:25.552Z,4.10
2023-01-15T08:00:30.309Z,4.10
2023-01-15T08:03:33.584Z,4.20
2023-01-15T08:06:36.898Z,4.20
2023-01-15T08:09:40.118Z,4.30
2023-01-15T08:13:00.718Z,4.30
2023-01-15T08:16:05.610Z,4.30
2023-01-15T08:19:08.839Z,4.30
2023-01-15T08:22:13.081Z,4.40
2023-01-15T08:25:18.459Z,4.40
2023-01-15T08:28:21.769Z,4.40
2023-01-15T08:31:26.747Z,4.50
2023-01-15T08:34:30.148Z,4.50
2023-01-15T08:37:33.377Z,4.50
2023-01-15T08:40:57.603Z,4.60
2023-01-15T08:44:01.511Z,4.60
2023-01-15T08:47:06.433Z,4.70
2023-01-15T08:50:11.132Z,4.70
2023-01-15T08:53:14.525Z,4.80
2023-01-15T08:56:19.569Z,4.80
2023-01-15T08:59:23.024Z,4.80
2023-01-15T09:02:29.462Z,4.90
2023-01-15T09:05:33.754Z,5.00
2023-01-15T09:08:37.041Z,5.00
2023-01-15T09:11:41.501Z,5.10
2023-01-15T09:14:59.355Z,5.20
2023-01-15T09:18:10.661Z,5.20
2023-01-15T09:21:13.894Z,5.20
2023-01-15T09:24:17.245Z,5.20
2023-01-15T09:27:20.672Z,5.20
2023-01-15T09:30:24.602Z,5.30
2023-01-15T09:33:29.408Z,5.30
2023-01-15T09:36:34.413Z,5.30
2023-01-15T09:39:39.009Z,5.40
2023-01-15T09:42:49.628Z,5.40
2023-01-15T09:45:59.386Z,5.50
2023-01-15T09:49:16.805Z,5.60
2023-01-15T09:52:32.197Z,5.60
2023-01-15T09:55:42.048Z,5.60
2023-01-15T09:58:45.628Z,5.60
2023-01-15T10:01:53.318Z,5.70
2023-01-15T10:05:04.677Z,5.80
2023-01-15T10:08:14.472Z,5.80
2023-01-15T10:11:53.383Z,5.80
2023-01-15T10:15:03.649Z,5.80
2023-01-15T10:18:09.216Z,5.90
2023-01-15T10:21:24.316Z,5.90
2023-01-15T10:24:37.049Z,5.90
2023-01-15T10:27:46.914Z,5.90
2023-01-15T10:30:55.384Z,5.90
2023-01-15T10:34:11.534Z,6.00
2023-01-15T10:37:25.188Z,6.00
2023-01-15T10:40:52.269Z,6.00
2023-01-15T10:44:01.709Z,6.00
2023-01-15T10:47:13.703Z,6.00
2023-01-15T10:50:20.116Z,6.00
2023-01-15T10:53:32.366Z,6.00
2023-01-15T10:56:42.152Z,6.00
2023-01-15T10:59:51.265Z,6.00
2023-01-15T11:03:03.181Z,6.10
2023-01-15T11:06:12.851Z,5.90
2023-01-15T11:09:23.393Z,6.10
2023-01-15T11:12:47.395Z,6.20
2023-01-15T11:16:08.767Z,6.20
2023-01-15T11:19:40.491Z,6.20
2023-01-15T11:22:45.006Z,6.10
2023-01-15T11:25:55.790Z,6.10
2023-01-15T11:29:01.610Z,6.10
2023-01-15T11:32:05.481Z,6.10
2023-01-15T11:35:17.994Z,6.10
2023-01-15T11:38:23.144Z,6.10
2023-01-15T11:41:51.635Z,6.10
2023-01-15T11:45:19.632Z,6.20
2023-01-15T11:48:42.094Z,6.20
2023-01-15T11:51:49.971Z,6.10
2023-01-15T11:54:56.487Z,6.20
2023-01-15T11:58:03.106Z,6.10
2023-01-15T12:01:06.775Z,6.20
2023-01-15T12:04:27.424Z,6.20
2023-01-15T12:07:31.255Z,6.30
2023-01-15T12:11:00.948Z,6.30
2023-01-15T12:14:45.558Z,6.40
2023-01-15T12:18:21.516Z,6.40
2023-01-15T12:22:04.843Z,6.30
2023-01-15T12:25:32.000Z,6.30
2023-01-15T12:28:39.157Z,6.40
2023-01-15T12:31:50.402Z,6.40
2023-01-15T12:34:58.906Z,6.40
2023-01-15T12:38:14.807Z,6.30
2023-01-15T12:41:24.113Z,6.40
2023-01-15T12:44:55.017Z,6.30
2023-01-15T12:48:06.571Z,6.30
2023-01-15T12:51:14.664Z,6.30
2023-01-15T12:54:25.249Z,6.20
2023-01-15T12:57:34.811Z,6.20
2023-01-15T13:00:42.889Z,6.20
2023-01-15T13:04:12.241Z,6.20
2023-01-15T13:07:23.145Z,6.20
2023-01-15T13:10:28.572Z,6.10
2023-01-15T13:13:34.317Z,6.10
2023-01-15T13:16:46.374Z,6.10
2023-01-15T13:20:04.659Z,6.00
2023-01-15T13:23:19.152Z,6.00
2023-01-15T13:26:42.034Z,6.00
2023-01-15T13:29:58.187Z,6.00
2023-01-15T13:33:13.942Z,6.00
2023-01-15T13:36:25.892Z,6.00
2023-01-15T13:39:39.112Z,5.90
2023-01-15T13:42:49.601Z,5.70
2023-01-15T13:45:52.928Z,5.70
2023-01-15T13:48:56.390Z,5.60
2023-01-15T13:52:04.301Z,5.70
2023-01-15T13:55:14.260Z,5.60
2023-01-15T13:58:27.164Z,5.40
2023-01-15T14:01:35.468Z,5.20
2023-01-15T14:04:40.892Z,5.10
2023-01-15T14:07:45.568Z,5.00
2023-01-15T14:10:49.881Z,4.90
2023-01-15T14:14:10.603Z,4.70
2023-01-15T14:17:57.541Z,4.60
2023-01-15T14:21:20.939Z,4.60
2023-01-15T14:24:57.691Z,4.60
2023-01-15T14:28:25.287Z,4.60
2023-01-15T14:31:51.094Z,4.50
2023-01-15T14:34:59.470Z,4.40
2023-01-15T14:38:07.521Z,4.40
2023-01-15T14:41:13.771Z,4.30
2023-01-15T14:44:17.304Z,4.30
2023-01-15T14:47:32.002Z,4.30
2023-01-15T14:50:39.436Z,4.20
2023-01-15T14:53:46.278Z,4.20
2023-01-15T14:56:53.155Z,4.20
2023-01-15T15:00:00.853Z,4.10
2023-01-15T15:03:14.811Z,4.10
2023-01-15T15:06:19.245Z,4.10
2023-01-15T15:09:34.682Z,4.10
2023-01-15T15:12:44.837Z,4.10
2023-01-15T15:15:54.806Z,4.10
2023-01-15T15:19:03.230Z,4.00
2023-01-15T15:22:11.851Z,4.00
2023-01-15T15:25:22.491Z,4.00
2023-01-15T15:28:27.769Z,4.00
2023-01-15T15:31:37.680Z,4.00
2023-01-15T15:34:47.027Z,4.00
2023-01-15T15:37:51.475Z,3.90
2023-01-15T15:40:59.004Z,4.00
2023-01-15T15:44:22.166Z,3.90
2023-01-15T15:47:45.033Z,3.90
2023-01-15T15:50:49.674Z,3.90
2023-01-15T15:54:03.470Z,3.90
2023-01-15T15:57:10.085Z,3.90
2023-01-15T16:00:20.767Z,3.90
2023-01-15T16:03:27.112Z,3.90
2023-01-15T16:06:30.902Z,3.80
2023-01-15T16:09:35.151Z,3.90
2023-01-15T16:12:44.052Z,3.80
2023-01-15T16:15:55.903Z,3.90
2023-01-15T16:19:01.408Z,3.90
2023-01-15T16:22:07.662Z,3.90
2023-01-15T16:25:23.464Z,3.80
2023-01-15T16:28:31.051Z,3.80
2023-01-15T16:31:37.383Z,3.80
2023-01-15T16:34:41.637Z,3.90
2023-01-15T16:37:48.833Z,3.80
2023-01-15T16:40:52.462Z,3.90
2023-01-15T16:43:57.944Z,3.80
2023-01-15T16:47:04.016Z,3.90
2023-01-15T16:50:29.831Z,3.80
2023-01-15T16:53:39.971Z,3.80
2023-01-15T16:56:57.540Z,3.80
2023-01-15T17:00:07.122Z,3.80
2023-01-15T17:03:14.805Z,3.80
2023-01-15T17:06:23.435Z,3.80
2023-01-15T17:09:27.667Z,3.80
2023-01-15T17:12:34.823Z,3.80
2023-01-15T17:15:40.670Z,3.80
2023-01-15T17:18:46.070Z,3.80
2023-01-15T17:21:49.341Z,3.80
2023-01-15T17:24:55.525Z,3.80
2023-01-15T17:28:00.151Z,3.80
2023-01-15T17:31:04.307Z,3.90
2023-01-15T17:34:09.079Z,3.90
2023-01-15T17:37:12.902Z,3.90
2023-01-15T17:40:16.445Z,3.90
2023-01-15T17:43:19.901Z,3.90
2023-01-15T17:46:24.506Z,3.80
2023-01-15T17:49:29.423Z,3.80
2023-01-15T17:52:32.786Z,3.80
2023-01-15T17:55:54.161Z,3.90
2023-01-15T17:59:14.827Z,3.80
2023-01-15T18:02:36.020Z,3.80
2023-01-15T18:05:41.416Z,3.80
2023-01-15T18:08:48.765Z,3.80
2023-01-15T18:11:52.204Z,3.80
2023-01-15T18:14:55.730Z,3.80
2023-01-15T18:17:59.152Z,3.80
2023-01-15T18:21:04.554Z,3.80
2023-01-15T18:24:09.574Z,3.80
2023-01-15T18:27:13.569Z,3.80
2023-01-15T18:30:19.557Z,3.80
2023-01-15T18:33:22.917Z,3.80
2023-01-15T18:36:29.270Z,3.80
2023-01-15T18:39:35.174Z,3.80
2023-01-15T18:42:57.753Z,3.80
2023-01-15T18:46:18.611Z,3.80
2023-01-15T18:49:22.520Z,3.80
2023-01-15T18:52:45.110Z,3.80
2023-01-15T18:55:48.578Z,3.80
2023-01-15T18:58:51.991Z,3.80
2023-01-15T19:01:56.363Z,3.80
2023-01-15T19:05:00.771Z,3.80
2023-01-15T19:08:05.783Z,3.80
2023-01-15T19:11:14.728Z,3.80
2023-01-15T19:14:35.709Z,3.70
2023-01-15T19:17:57.093Z,3.80
2023-01-15T19:21:01.212Z,3.80
2023-01-15T19:24:07.113Z,3.70
2023-01-15T19:27:10.912Z,3.80
2023-01-15T19:30:15.832Z,3.70
2023-01-15T19:33:19.761Z,3.80
2023-01-15T19:36:23.399Z,3.80
2023-01-15T19:39:28.930Z,3.80
2023-01-15T19:42:49.816Z,3.80
2023-01-15T19:46:10.259Z,3.70
2023-01-15T19:49:34.032Z,3.70
2023-01-15T19:52:41.746Z,3.70
2023-01-15T19:55:47.421Z,3.70
2023-01-15T19:58:50.929Z,3.70
2023-01-15T20:01:55.633Z,3.70
2023-01-15T20:05:02.251Z,3.70
2023-01-15T20:08:09.556Z,3.70
2023-01-15T20:11:15.855Z,3.70
2023-01-15T20:14:19.388Z,3.70
2023-01-15T20:17:23.105Z,3.70
2023-01-15T20:20:27.623Z,3.70
2023-01-15T20:23:31.297Z,3.70
2023-01-15T20:26:39.552Z,3.70
2023-01-15T20:29:45.718Z,3.70
2023-01-15T20:32:50.257Z,3.70
2023-01-15T20:35:55.074Z,3.70
2023-01-15T20:39:00.306Z,3.70
2023-01-15T20:42:19.242Z,3.70
2023-01-15T20:45:22.870Z,3.70
2023-01-15T20:48:43.837Z,3.80
2023-01-15T20:51:48.173Z,3.80
2023-01-15T20:54:51.746Z,3.80
2023-01-15T20:57:57.388Z,3.80
2023-01-15T21:01:06.895Z,3.80
2023-01-15T21:04:13.918Z,3.90
2023-01-15T21:07:17.461Z,3.90
2023-01-15T21:10:23.043Z,3.90
2023-01-15T21:13:27.964Z,3.90
2023-01-15T21:16:31.532Z,4.00
2023-01-15T21:19:34.851Z,3.90
2023-01-15T21:22:38.387Z,4.00
2023-01-15T21:25:41.766Z,4.00
2023-01-15T21:28:46.621Z,4.00
2023-01-15T21:31:49.883Z,4.00
2023-01-15T21:34:53.241Z,4.00
2023-01-15T21:37:56.469Z,4.00
2023-01-15T21:40:59.796Z,4.00
2023-01-15T21:44:24.436Z,4.00
2023-01-15T21:47:27.828Z,4.00
2023-01-15T21:50:31.126Z,4.00
2023-01-15T21:53:34.460Z,4.00
2023-01-15T21:56:39.534Z,4.00
2023-01-15T21:59:44.141Z,4.00
2023-01-15T22:02:47.486Z,4.00
2023-01-15T22:05:50.757Z,4.00
2023-01-15T22:08:55.304Z,4.00
2023-01-15T22:11:58.662Z,4.00
2023-01-15T22:15:03.412Z,4.00
2023-01-15T22:18:06.871Z,4.00
2023-01-15T22:21:15.355Z,4.00
2023-01-15T22:24:19.699Z,4.00
2023-01-15T22:27:23.091Z,4.00
2023-01-15T22:30:27.817Z,4.00
2023-01-15T22:33:31.238Z,4.00
2023-01-15T22:36:34.561Z,4.00
2023-01-15T22:39:37.829Z,4.00
2023-01-15T22:42:41.142Z,4.00
2023-01-15T22:45:45.823Z,3.90
2023-01-15T22:48:49.085Z,3.90
2023-01-15T22:51:53.191Z,3.90
2023-01-15T22:54:56.463Z,3.90
2023-01-15T22:57:59.781Z,3.90
2023-01-15T23:01:05.119Z,3.80
2023-01-15T23:04:13.144Z,3.80
2023-01-15T23:07:16.431Z,3.80
2023-01-15T23:10:19.808Z,3.80
2023-01-15T23:13:23.132Z,3.80
2023-01-15T23:16:27.944Z,3.80
2023-01-15T23:19:31.306Z,3.80
2023-01-15T23:22:34.616Z,3.80
2023-01-15T23:25:37.925Z,3.80
2023-01-15T23:28:41.671Z,3.80
2023-01-15T23:31:46.316Z,3.80
2023-01-15T23:34:49.613Z,3.80
2023-01-15T23:37:53.000Z,3.80
2023-01-15T23:40:57.247Z,3.80
2023-01-15T23:44:17.817Z,3.30
2023-01-15T23:47:22.693Z,3.80
2023-01-15T23:50:26.123Z,3.80
2023-01-15T23:53:29.486Z,3.80
2023-01-15T23:56:33.974Z,3.70
2023-01-15T23:59:37.686Z,3.80
